sensor_id;sensor_type;location;lat;lon;timestamp;pressure;altitude;pressure_sealevel;temperature
17716;BMP280;50159;49.426;11.182;2022-10-16T00:01:39;97616.22;;;15.90
17716;BMP280;50159;49.426;11.182;2022-10-16T00:04:06;97611.81;;;15.90
17716;BMP280;50159;49.426;11.182;2022-10-16T00:06:33;97610.16;;;15.89
17716;BMP280;50159;49.426;11.182;2022-10-16T00:09:00;97616.22;;;15.90
17716;BMP280;50159;49.426;11.182;2022-10-16T00:11:31;97617.91;;;15.91
17716;BMP280;50159;49.426;11.182;2022-10-16T00:14:10;97612.13;;;15.87
17716;BMP280;50159;49.426;11.182;2022-10-16T00:16:38;97613.09;;;15.86
17716;BMP280;50159;49.426;11.182;2022-10-16T00:19:05;97617.34;;;15.87
17716;BMP280;50159;49.426;11.182;2022-10-16T00:21:33;97621.78;;;15.87
17716;BMP280;50159;49.426;11.182;2022-10-16T00:24:05;97627.03;;;15.87
17716;BMP280;50159;49.426;11.182;2022-10-16T00:26:34;97626.88;;;15.88
17716;BMP280;50159;49.426;11.182;2022-10-16T00:29:02;97634.75;;;15.88
17716;BMP280;50159;49.426;11.182;2022-10-16T00:31:29;97635.56;;;15.89
17716;BMP280;50159;49.426;11.182;2022-10-16T00:33:56;97631.44;;;15.86
17716;BMP280;50159;49.426;11.182;2022-10-16T00:36:26;97636.84;;;15.85
17716;BMP280;50159;49.426;11.182;2022-10-16T00:38:56;97643.75;;;15.86
17716;BMP280;50159;49.426;11.182;2022-10-16T00:41:25;97634.22;;;15.85
17716;BMP280;50159;49.426;11.182;2022-10-16T00:43:58;97641.28;;;15.84
17716;BMP280;50159;49.426;11.182;2022-10-16T00:46:34;97637.69;;;15.85
17716;BMP280;50159;49.426;11.182;2022-10-16T00:49:06;97643.09;;;15.84
17716;BMP280;50159;49.426;11.182;2022-10-16T00:51:55;97624.88;;;15.82
17716;BMP280;50159;49.426;11.182;2022-10-16T00:54:27;97624.88;;;15.82
17716;BMP280;50159;49.426;11.182;2022-10-16T00:56:57;97637.31;;;15.80
17716;BMP280;50159;49.426;11.182;2022-10-16T00:59:33;97640.09;;;15.79
17716;BMP280;50159;49.426;11.182;2022-10-16T01:02:01;97631.53;;;15.77
17716;BMP280;50159;49.426;11.182;2022-10-16T01:04:35;97643.97;;;15.75
17716;BMP280;50159;49.426;11.182;2022-10-16T01:07:27;97643.31;;;15.73
17716;BMP280;50159;49.426;11.182;2022-10-16T01:10:37;97634.78;;;15.71
17716;BMP280;50159;49.426;11.182;2022-10-16T01:13:38;97642.81;;;15.69
17716;BMP280;50159;49.426;11.182;2022-10-16T01:16:21;97641.31;;;15.67
17716;BMP280;50159;49.426;11.182;2022-10-16T01:19:02;97642.28;;;15.66
17716;BMP280;50159;49.426;11.182;2022-10-16T01:21:40;97643.25;;;15.65
17716;BMP280;50159;49.426;11.182;2022-10-16T01:24:39;97639.78;;;15.65
17716;BMP280;50159;49.426;11.182;2022-10-16T01:27:28;97648.78;;;15.62
17716;BMP280;50159;49.426;11.182;2022-10-16T01:30:21;97654.34;;;15.59
17716;BMP280;50159;49.426;11.182;2022-10-16T01:32:57;97649.91;;;15.60
17716;BMP280;50159;49.426;11.182;2022-10-16T01:35:34;97643.84;;;15.59
17716;BMP280;50159;49.426;11.182;2022-10-16T01:38:30;97647.28;;;15.60
17716;BMP280;50159;49.426;11.182;2022-10-16T01:43:45;97646.63;;;15.58
17716;BMP280;50159;49.426;11.182;2022-10-16T01:46:18;97651.88;;;15.58
17716;BMP280;50159;49.426;11.182;2022-10-16T01:48:49;97649.41;;;15.56
17716;BMP280;50159;49.426;11.182;2022-10-16T01:51:19;97663.19;;;15.58
17716;BMP280;50159;49.426;11.182;2022-10-16T01:53:53;97675.31;;;15.59
17716;BMP280;50159;49.426;11.182;2022-10-16T01:56:22;97673.00;;;15.56
17716;BMP280;50159;49.426;11.182;2022-10-16T01:59:06;97672.03;;;15.57
17716;BMP280;50159;49.426;11.182;2022-10-16T02:01:37;97678.75;;;15.60
17716;BMP280;50159;49.426;11.182;2022-10-16T02:04:18;97685.94;;;15.58
17716;BMP280;50159;49.426;11.182;2022-10-16T02:06:45;97686.78;;;15.58
17716;BMP280;50159;49.426;11.182;2022-10-16T02:09:12;97684.97;;;15.59
17716;BMP280;50159;49.426;11.182;2022-10-16T02:11:39;97697.94;;;15.60
17716;BMP280;50159;49.426;11.182;2022-10-16T02:14:07;97692.69;;;15.60
17716;BMP280;50159;49.426;11.182;2022-10-16T02:16:39;97683.03;;;15.61
17716;BMP280;50159;49.426;11.182;2022-10-16T02:19:07;97686.47;;;15.61
17716;BMP280;50159;49.426;11.182;2022-10-16T02:21:57;97681.22;;;15.61
17716;BMP280;50159;49.426;11.182;2022-10-16T02:24:37;97678.75;;;15.60
17716;BMP280;50159;49.426;11.182;2022-10-16T02:30:28;97683.84;;;15.61
17716;BMP280;50159;49.426;11.182;2022-10-16T02:32:59;97684.81;;;15.60
17716;BMP280;50159;49.426;11.182;2022-10-16T02:35:28;97681.22;;;15.61
17716;BMP280;50159;49.426;11.182;2022-10-16T02:37:56;97682.19;;;15.60
17716;BMP280;50159;49.426;11.182;2022-10-16T02:40:25;97676.97;;;15.60
17716;BMP280;50159;49.426;11.182;2022-10-16T02:42:54;97682.19;;;15.60
17716;BMP280;50159;49.426;11.182;2022-10-16T02:45:22;97677.94;;;15.59
17716;BMP280;50159;49.426;11.182;2022-10-16T02:47:49;97672.69;;;15.59
17716;BMP280;50159;49.426;11.182;2022-10-16T02:50:16;97683.03;;;15.61
17716;BMP280;50159;49.426;11.182;2022-10-16T02:52:43;97668.41;;;15.58
17716;BMP280;50159;49.426;11.182;2022-10-16T02:55:10;97669.25;;;15.59
17716;BMP280;50159;49.426;11.182;2022-10-16T02:57:37;97680.56;;;15.59
17716;BMP280;50159;49.426;11.182;2022-10-16T03:00:07;97683.34;;;15.58
17716;BMP280;50159;49.426;11.182;2022-10-16T03:02:34;97678.91;;;15.58
17716;BMP280;50159;49.426;11.182;2022-10-16T03:05:01;97682.50;;;15.57
17716;BMP280;50159;49.426;11.182;2022-10-16T03:07:28;97675.63;;;15.56
17716;BMP280;50159;49.426;11.182;2022-10-16T03:09:55;97675.63;;;15.56
17716;BMP280;50159;49.426;11.182;2022-10-16T03:12:22;97683.47;;;15.56
17716;BMP280;50159;49.426;11.182;2022-10-16T03:14:48;97670.38;;;15.56
17716;BMP280;50159;49.426;11.182;2022-10-16T03:17:15;97679.06;;;15.57
17716;BMP280;50159;49.426;11.182;2022-10-16T03:19:43;97679.22;;;15.55
17716;BMP280;50159;49.426;11.182;2022-10-16T03:22:10;97680.03;;;15.56
17716;BMP280;50159;49.426;11.182;2022-10-16T03:24:37;97681.84;;;15.55
17716;BMP280;50159;49.426;11.182;2022-10-16T03:27:04;97687.91;;;15.56
17716;BMP280;50159;49.426;11.182;2022-10-16T03:29:30;97683.63;;;15.55
17716;BMP280;50159;49.426;11.182;2022-10-16T03:31:59;97689.84;;;15.54
17716;BMP280;50159;49.426;11.182;2022-10-16T03:34:26;97687.22;;;15.54
17716;BMP280;50159;49.426;11.182;2022-10-16T03:36:54;97686.41;;;15.53
17716;BMP280;50159;49.426;11.182;2022-10-16T03:39:21;97678.53;;;15.53
17716;BMP280;50159;49.426;11.182;2022-10-16T03:41:48;97684.63;;;15.54
17716;BMP280;50159;49.426;11.182;2022-10-16T03:44:15;97687.22;;;15.54
17716;BMP280;50159;49.426;11.182;2022-10-16T03:46:42;97688.88;;;15.55
17716;BMP280;50159;49.426;11.182;2022-10-16T03:49:09;97697.72;;;15.54
17716;BMP280;50159;49.426;11.182;2022-10-16T03:51:36;97703.63;;;15.56
17716;BMP280;50159;49.426;11.182;2022-10-16T03:54:03;97704.59;;;15.55
17716;BMP280;50159;49.426;11.182;2022-10-16T03:56:30;97707.06;;;15.56
17716;BMP280;50159;49.426;11.182;2022-10-16T03:58:56;97705.44;;;15.55
17716;BMP280;50159;49.426;11.182;2022-10-16T04:01:24;97700.19;;;15.55
17716;BMP280;50159;49.426;11.182;2022-10-16T04:03:51;97704.47;;;15.56
17716;BMP280;50159;49.426;11.182;2022-10-16T04:06:18;97707.06;;;15.56
17716;BMP280;50159;49.426;11.182;2022-10-16T04:08:45;97712.31;;;15.56
17716;BMP280;50159;49.426;11.182;2022-10-16T04:11:12;97715.91;;;15.55
17716;BMP280;50159;49.426;11.182;2022-10-16T04:13:39;97715.91;;;15.55
17716;BMP280;50159;49.426;11.182;2022-10-16T04:16:06;97712.63;;;15.53
17716;BMP280;50159;49.426;11.182;2022-10-16T04:18:33;97723.78;;;15.55
17716;BMP280;50159;49.426;11.182;2022-10-16T04:21:06;97728.06;;;15.56
17716;BMP280;50159;49.426;11.182;2022-10-16T04:23:34;97730.97;;;15.53
17716;BMP280;50159;49.426;11.182;2022-10-16T04:26:01;97731.66;;;15.55
17716;BMP280;50159;49.426;11.182;2022-10-16T04:28:28;97733.59;;;15.53
17716;BMP280;50159;49.426;11.182;2022-10-16T04:30:55;97726.41;;;15.55
17716;BMP280;50159;49.426;11.182;2022-10-16T04:33:22;97731.66;;;15.55
17716;BMP280;50159;49.426;11.182;2022-10-16T04:35:56;97729.69;;;15.57
17716;BMP280;50159;49.426;11.182;2022-10-16T04:38:22;97721.16;;;15.55
17716;BMP280;50159;49.426;11.182;2022-10-16T04:40:49;97733.28;;;15.56
17716;BMP280;50159;49.426;11.182;2022-10-16T04:43:16;97728.06;;;15.56
17716;BMP280;50159;49.426;11.182;2022-10-16T04:45:43;97725.59;;;15.55
17716;BMP280;50159;49.426;11.182;2022-10-16T04:48:10;97719.50;;;15.54
17716;BMP280;50159;49.426;11.182;2022-10-16T04:50:38;97721.44;;;15.52
17716;BMP280;50159;49.426;11.182;2022-10-16T04:53:05;97728.34;;;15.53
17716;BMP280;50159;49.426;11.182;2022-10-16T04:55:34;97724.91;;;15.53
17716;BMP280;50159;49.426;11.182;2022-10-16T04:58:01;97719.13;;;15.49
17716;BMP280;50159;49.426;11.182;2022-10-16T05:00:28;97712.91;;;15.50
17716;BMP280;50159;49.426;11.182;2022-10-16T05:02:55;97709.59;;;15.48
17716;BMP280;50159;49.426;11.182;2022-10-16T05:05:22;97715.81;;;15.47
17716;BMP280;50159;49.426;11.182;2022-10-16T05:07:49;97718.44;;;15.47
17716;BMP280;50159;49.426;11.182;2022-10-16T05:10:17;97716.13;;;15.45
17716;BMP280;50159;49.426;11.182;2022-10-16T05:12:44;97719.41;;;15.46
17716;BMP280;50159;49.426;11.182;2022-10-16T05:15:11;97725.47;;;15.47
17716;BMP280;50159;49.426;11.182;2022-10-16T05:17:38;97723.00;;;15.46
17716;BMP280;50159;49.426;11.182;2022-10-16T05:20:11;97725.63;;;15.46
17716;BMP280;50159;49.426;11.182;2022-10-16T05:22:38;97735.44;;;15.44
17716;BMP280;50159;49.426;11.182;2022-10-16T05:25:05;97740.03;;;15.42
17716;BMP280;50159;49.426;11.182;2022-10-16T05:27:32;97726.22;;;15.40
17716;BMP280;50159;49.426;11.182;2022-10-16T05:29:59;97732.72;;;15.36
17716;BMP280;50159;49.426;11.182;2022-10-16T05:32:26;97736.31;;;15.35
17716;BMP280;50159;49.426;11.182;2022-10-16T05:34:52;97739.09;;;15.33
17716;BMP280;50159;49.426;11.182;2022-10-16T05:37:19;97732.34;;;15.31
17716;BMP280;50159;49.426;11.182;2022-10-16T05:39:46;97744.63;;;15.30
17716;BMP280;50159;49.426;11.182;2022-10-16T05:42:13;97754.28;;;15.30
17716;BMP280;50159;49.426;11.182;2022-10-16T05:44:41;97755.28;;;15.29
17716;BMP280;50159;49.426;11.182;2022-10-16T05:47:08;97756.09;;;15.29
17716;BMP280;50159;49.426;11.182;2022-10-16T05:49:35;97771.00;;;15.29
17716;BMP280;50159;49.426;11.182;2022-10-16T05:52:07;97777.72;;;15.31
17716;BMP280;50159;49.426;11.182;2022-10-16T05:54:33;97788.88;;;15.33
17716;BMP280;50159;49.426;11.182;2022-10-16T05:57:00;97791.34;;;15.35
17716;BMP280;50159;49.426;11.182;2022-10-16T05:59:28;97790.38;;;15.36
17716;BMP280;50159;49.426;11.182;2022-10-16T06:01:55;97795.47;;;15.37
17716;BMP280;50159;49.426;11.182;2022-10-16T06:04:22;97796.31;;;15.38
17716;BMP280;50159;49.426;11.182;2022-10-16T06:06:48;97792.59;;;15.40
17716;BMP280;50159;49.426;11.182;2022-10-16T06:09:15;97797.38;;;15.45
17716;BMP280;50159;49.426;11.182;2022-10-16T06:11:42;97789.66;;;15.43
17716;BMP280;50159;49.426;11.182;2022-10-16T06:14:09;97785.47;;;15.50
17716;BMP280;50159;49.426;11.182;2022-10-16T06:16:38;97792.22;;;15.52
17716;BMP280;50159;49.426;11.182;2022-10-16T06:19:05;97788.50;;;15.55
17716;BMP280;50159;49.426;11.182;2022-10-16T06:21:35;97786.56;;;15.57
17716;BMP280;50159;49.426;11.182;2022-10-16T06:24:03;97797.09;;;15.65
17716;BMP280;50159;49.426;11.182;2022-10-16T06:26:31;97796.69;;;15.69
17716;BMP280;50159;49.426;11.182;2022-10-16T06:28:59;97798.56;;;15.76
17716;BMP280;50159;49.426;11.182;2022-10-16T06:31:28;97803.22;;;15.82
17716;BMP280;50159;49.426;11.182;2022-10-16T06:33:57;97796.13;;;15.92
17716;BMP280;50159;49.426;11.182;2022-10-16T06:36:25;97800.88;;;16.06
17716;BMP280;50159;49.426;11.182;2022-10-16T06:38:52;97802.47;;;16.16
17716;BMP280;50159;49.426;11.182;2022-10-16T06:41:22;97793.97;;;16.22
17716;BMP280;50159;49.426;11.182;2022-10-16T06:43:49;97799.16;;;16.31
17716;BMP280;50159;49.426;11.182;2022-10-16T06:46:21;97808.50;;;16.34
17716;BMP280;50159;49.426;11.182;2022-10-16T06:48:48;97818.84;;;16.35
17716;BMP280;50159;49.426;11.182;2022-10-16T06:51:21;97814.19;;;16.46
17716;BMP280;50159;49.426;11.182;2022-10-16T06:53:54;97813.34;;;16.63
17716;BMP280;50159;49.426;11.182;2022-10-16T06:56:32;97815.28;;;16.78
17716;BMP280;50159;49.426;11.182;2022-10-16T06:59:00;97808.91;;;16.88
17716;BMP280;50159;49.426;11.182;2022-10-16T07:01:28;97816.13;;;16.86
17716;BMP280;50159;49.426;11.182;2022-10-16T07:03:55;97828.25;;;16.80
17716;BMP280;50159;49.426;11.182;2022-10-16T07:06:24;97831.31;;;16.75
17716;BMP280;50159;49.426;11.182;2022-10-16T07:08:52;97839.31;;;16.66
17716;BMP280;50159;49.426;11.182;2022-10-16T07:11:22;97849.75;;;16.58
17716;BMP280;50159;49.426;11.182;2022-10-16T07:13:51;97852.13;;;16.52
17716;BMP280;50159;49.426;11.182;2022-10-16T07:16:28;97860.47;;;16.47
17716;BMP280;50159;49.426;11.182;2022-10-16T07:18:58;97863.56;;;16.43
17716;BMP280;50159;49.426;11.182;2022-10-16T07:21:30;97873.53;;;16.39
17716;BMP280;50159;49.426;11.182;2022-10-16T07:23:59;97877.28;;;16.37
17716;BMP280;50159;49.426;11.182;2022-10-16T07:26:31;97869.41;;;16.37
17716;BMP280;50159;49.426;11.182;2022-10-16T07:28:59;97868.28;;;16.39
17716;BMP280;50159;49.426;11.182;2022-10-16T07:31:26;97873.25;;;16.42
17716;BMP280;50159;49.426;11.182;2022-10-16T07:33:54;97873.75;;;16.46
17716;BMP280;50159;49.426;11.182;2022-10-16T07:36:21;97875.88;;;16.42
17716;BMP280;50159;49.426;11.182;2022-10-16T07:38:48;97884.56;;;16.43
17716;BMP280;50159;49.426;11.182;2022-10-16T07:41:21;97888.03;;;16.43
17716;BMP280;50159;49.426;11.182;2022-10-16T07:43:50;97891.47;;;16.44
17716;BMP280;50159;49.426;11.182;2022-10-16T07:46:20;97901.31;;;16.42
17716;BMP280;50159;49.426;11.182;2022-10-16T07:48:47;97905.84;;;16.40
17716;BMP280;50159;49.426;11.182;2022-10-16T07:51:19;97899.66;;;16.41
17716;BMP280;50159;49.426;11.182;2022-10-16T07:53:47;97892.59;;;16.41
17716;BMP280;50159;49.426;11.182;2022-10-16T07:56:16;97881.78;;;16.44
17716;BMP280;50159;49.426;11.182;2022-10-16T07:58:43;97877.88;;;16.48
17716;BMP280;50159;49.426;11.182;2022-10-16T08:01:14;97885.16;;;16.54
17716;BMP280;50159;49.426;11.182;2022-10-16T08:03:43;97885.53;;;16.59
17716;BMP280;50159;49.426;11.182;2022-10-16T08:06:11;97872.75;;;16.64
17716;BMP280;50159;49.426;11.182;2022-10-16T08:08:37;97870.69;;;16.67
17716;BMP280;50159;49.426;11.182;2022-10-16T08:11:04;97880.41;;;16.75
17716;BMP280;50159;49.426;11.182;2022-10-16T08:13:32;97887.69;;;16.81
17716;BMP280;50159;49.426;11.182;2022-10-16T08:15:59;97896.44;;;16.89
17716;BMP280;50159;49.426;11.182;2022-10-16T08:18:26;97891.06;;;16.90
17716;BMP280;50159;49.426;11.182;2022-10-16T08:20:58;97907.53;;;17.00
17716;BMP280;50159;49.426;11.182;2022-10-16T08:23:27;97899.75;;;17.08
17716;BMP280;50159;49.426;11.182;2022-10-16T08:25:56;97907.72;;;17.16
17716;BMP280;50159;49.426;11.182;2022-10-16T08:28:27;97917.28;;;17.25
17716;BMP280;50159;49.426;11.182;2022-10-16T08:30:55;97915.31;;;17.26
17716;BMP280;50159;49.426;11.182;2022-10-16T08:33:23;97930.50;;;17.32
17716;BMP280;50159;49.426;11.182;2022-10-16T08:35:53;97916.56;;;17.40
17716;BMP280;50159;49.426;11.182;2022-10-16T08:38:21;97915.84;;;17.55
17716;BMP280;50159;49.426;11.182;2022-10-16T08:40:48;97911.38;;;17.80
17716;BMP280;50159;49.426;11.182;2022-10-16T08:46:43;97919.47;;;18.27
17716;BMP280;50159;49.426;11.182;2022-10-16T08:49:17;97911.63;;;18.43
17716;BMP280;50159;49.426;11.182;2022-10-16T08:51:44;97903.56;;;18.60
17716;BMP280;50159;49.426;11.182;2022-10-16T08:54:36;97906.53;;;18.65
17716;BMP280;50159;49.426;11.182;2022-10-16T08:57:13;97917.06;;;18.65
17716;BMP280;50159;49.426;11.182;2022-10-16T08:59:45;97921.50;;;18.64
17716;BMP280;50159;49.426;11.182;2022-10-16T09:02:35;97922.03;;;18.68
17716;BMP280;50159;49.426;11.182;2022-10-16T09:05:17;97912.81;;;18.72
17716;BMP280;50159;49.426;11.182;2022-10-16T09:08:09;97919.22;;;18.77
17716;BMP280;50159;49.426;11.182;2022-10-16T09:13:53;97926.69;;;18.89
17716;BMP280;50159;49.426;11.182;2022-10-16T09:16:59;97918.63;;;18.99
17716;BMP280;50159;49.426;11.182;2022-10-16T09:19:41;97904.13;;;19.10
17716;BMP280;50159;49.426;11.182;2022-10-16T09:22:16;97913.81;;;19.26
17716;BMP280;50159;49.426;11.182;2022-10-16T09:24:43;97916.44;;;19.33
17716;BMP280;50159;49.426;11.182;2022-10-16T09:27:12;97924.19;;;19.35
17716;BMP280;50159;49.426;11.182;2022-10-16T09:29:40;97920.91;;;19.33
17716;BMP280;50159;49.426;11.182;2022-10-16T09:32:14;97916.44;;;19.33
17716;BMP280;50159;49.426;11.182;2022-10-16T09:34:52;97917.28;;;19.34
17716;BMP280;50159;49.426;11.182;2022-10-16T09:37:25;97935.09;;;19.32
17716;BMP280;50159;49.426;11.182;2022-10-16T09:39:54;97925.53;;;19.23
17716;BMP280;50159;49.426;11.182;2022-10-16T09:42:32;97925.19;;;19.10
17716;BMP280;50159;49.426;11.182;2022-10-16T09:45:00;97929.31;;;18.97
17716;BMP280;50159;49.426;11.182;2022-10-16T09:47:30;97938.53;;;18.85
17716;BMP280;50159;49.426;11.182;2022-10-16T09:50:02;97946.06;;;18.73
17716;BMP280;50159;49.426;11.182;2022-10-16T09:52:31;97947.38;;;18.61
17716;BMP280;50159;49.426;11.182;2022-10-16T09:55:02;97956.41;;;18.51
17716;BMP280;50159;49.426;11.182;2022-10-16T09:57:29;97945.88;;;18.43
17716;BMP280;50159;49.426;11.182;2022-10-16T09:59:58;97935.94;;;18.37
17716;BMP280;50159;49.426;11.182;2022-10-16T10:02:36;97952.41;;;18.39
17716;BMP280;50159;49.426;11.182;2022-10-16T10:05:23;97943.22;;;18.43
17716;BMP280;50159;49.426;11.182;2022-10-16T10:08:00;97948.38;;;18.60
17716;BMP280;50159;49.426;11.182;2022-10-16T10:10:37;97959.56;;;18.78
17716;BMP280;50159;49.426;11.182;2022-10-16T10:13:19;97950.41;;;18.97
17716;BMP280;50159;49.426;11.182;2022-10-16T10:15:47;97945.66;;;19.16
17716;BMP280;50159;49.426;11.182;2022-10-16T10:18:22;97950.56;;;19.35
17716;BMP280;50159;49.426;11.182;2022-10-16T10:21:02;97936.69;;;19.56
17716;BMP280;50159;49.426;11.182;2022-10-16T10:23:30;97947.91;;;19.74
17716;BMP280;50159;49.426;11.182;2022-10-16T10:26:24;97947.19;;;19.96
17716;BMP280;50159;49.426;11.182;2022-10-16T10:31:38;97949.31;;;20.38
17716;BMP280;50159;49.426;11.182;2022-10-16T10:34:44;97936.09;;;20.45
17716;BMP280;50159;49.426;11.182;2022-10-16T10:37:41;97946.66;;;20.45
17716;BMP280;50159;49.426;11.182;2022-10-16T10:54:55;97945.84;;;21.55
17716;BMP280;50159;49.426;11.182;2022-10-16T10:57:51;97950.53;;;21.67
17716;BMP280;50159;49.426;11.182;2022-10-16T11:06:36;97947.97;;;21.88
17716;BMP280;50159;49.426;11.182;2022-10-16T11:11:48;97943.53;;;21.38
17716;BMP280;50159;49.426;11.182;2022-10-16T11:14:29;97947.88;;;21.09
17716;BMP280;50159;49.426;11.182;2022-10-16T11:17:15;97937.25;;;20.95
17716;BMP280;50159;49.426;11.182;2022-10-16T11:19:54;97939.44;;;20.91
17716;BMP280;50159;49.426;11.182;2022-10-16T11:22:40;97945.19;;;20.95
17716;BMP280;50159;49.426;11.182;2022-10-16T11:25:22;97940.72;;;20.95
17716;BMP280;50159;49.426;11.182;2022-10-16T11:30:54;97952.22;;;21.02
17716;BMP280;50159;49.426;11.182;2022-10-16T11:33:44;97945.28;;;21.01
17716;BMP280;50159;49.426;11.182;2022-10-16T11:39:21;97947.16;;;21.15
17716;BMP280;50159;49.426;11.182;2022-10-16T11:42:36;97942.59;;;21.31
17716;BMP280;50159;49.426;11.182;2022-10-16T11:48:43;97951.63;;;21.87
17716;BMP280;50159;49.426;11.182;2022-10-16T11:51:57;97947.91;;;22.10
17716;BMP280;50159;49.426;11.182;2022-10-16T11:54:43;97940.41;;;22.42
17716;BMP280;50159;49.426;11.182;2022-10-16T11:57:24;97944.09;;;22.75
17716;BMP280;50159;49.426;11.182;2022-10-16T12:00:19;97945.75;;;22.97
17716;BMP280;50159;49.426;11.182;2022-10-16T12:03:16;97949.22;;;22.97
17716;BMP280;50159;49.426;11.182;2022-10-16T12:06:33;97947.50;;;22.90
17716;BMP280;50159;49.426;11.182;2022-10-16T12:09:02;97951.78;;;22.91
17716;BMP280;50159;49.426;11.182;2022-10-16T12:11:34;97947.66;;;23.23
17716;BMP280;50159;49.426;11.182;2022-10-16T12:16:58;97948.13;;;24.41
17716;BMP280;50159;49.426;11.182;2022-10-16T12:19:29;97940.09;;;24.74
17716;BMP280;50159;49.426;11.182;2022-10-16T12:22:00;97948.72;;;24.89
17716;BMP280;50159;49.426;11.182;2022-10-16T12:26:57;97947.94;;;24.94
17716;BMP280;50159;49.426;11.182;2022-10-16T12:29:41;97950.41;;;25.02
17716;BMP280;50159;49.426;11.182;2022-10-16T12:32:30;97942.41;;;25.02
17716;BMP280;50159;49.426;11.182;2022-10-16T12:35:23;97938.56;;;25.11
17716;BMP280;50159;49.426;11.182;2022-10-16T12:37:52;97934.16;;;24.78
17716;BMP280;50159;49.426;11.182;2022-10-16T12:40:31;97933.41;;;24.45
17716;BMP280;50159;49.426;11.182;2022-10-16T12:42:59;97935.28;;;24.04
17716;BMP280;50159;49.426;11.182;2022-10-16T12:45:37;97931.53;;;23.72
17716;BMP280;50159;49.426;11.182;2022-10-16T12:48:21;97923.31;;;23.40
17716;BMP280;50159;49.426;11.182;2022-10-16T12:54:21;97922.06;;;23.36
17716;BMP280;50159;49.426;11.182;2022-10-16T12:59:55;97926.47;;;23.50
17716;BMP280;50159;49.426;11.182;2022-10-16T13:08:13;97929.06;;;24.04
17716;BMP280;50159;49.426;11.182;2022-10-16T13:17:25;97931.59;;;25.29
17716;BMP280;50159;49.426;11.182;2022-10-16T13:20:18;97947.22;;;25.70
17716;BMP280;50159;49.426;11.182;2022-10-16T13:26:10;97946.28;;;26.46
17716;BMP280;50159;49.426;11.182;2022-10-16T13:28:39;97937.53;;;26.76
17716;BMP280;50159;49.426;11.182;2022-10-16T13:31:18;97951.41;;;26.97
17716;BMP280;50159;49.426;11.182;2022-10-16T13:33:51;97934.44;;;27.22
17716;BMP280;50159;49.426;11.182;2022-10-16T13:36:28;97936.78;;;27.36
17716;BMP280;50159;49.426;11.182;2022-10-16T13:39:27;97940.78;;;27.51
17716;BMP280;50159;49.426;11.182;2022-10-16T13:42:16;97937.16;;;27.94
17716;BMP280;50159;49.426;11.182;2022-10-16T13:44:50;97931.16;;;29.15
17716;BMP280;50159;49.426;11.182;2022-10-16T13:47:21;97928.19;;;31.47
17716;BMP280;50159;49.426;11.182;2022-10-16T13:50:14;97939.00;;;34.20
17716;BMP280;50159;49.426;11.182;2022-10-16T13:52:41;97940.75;;;35.90
17716;BMP280;50159;49.426;11.182;2022-10-16T13:55:17;97949.59;;;37.36
17716;BMP280;50159;49.426;11.182;2022-10-16T13:57:44;97946.16;;;38.85
17716;BMP280;50159;49.426;11.182;2022-10-16T14:00:23;97941.50;;;40.35
17716;BMP280;50159;49.426;11.182;2022-10-16T14:02:58;97941.50;;;40.35
17716;BMP280;50159;49.426;11.182;2022-10-16T14:05:28;97949.13;;;40.64
17716;BMP280;50159;49.426;11.182;2022-10-16T14:07:56;97949.13;;;40.64
17716;BMP280;50159;49.426;11.182;2022-10-16T14:10:30;97935.47;;;39.89
17716;BMP280;50159;49.426;11.182;2022-10-16T14:13:03;97939.09;;;39.84
17716;BMP280;50159;49.426;11.182;2022-10-16T14:15:33;97939.66;;;39.99
17716;BMP280;50159;49.426;11.182;2022-10-16T14:18:01;97942.69;;;40.74
17716;BMP280;50159;49.426;11.182;2022-10-16T14:20:33;97950.47;;;40.93
17716;BMP280;50159;49.426;11.182;2022-10-16T14:23:04;97937.59;;;40.81
17716;BMP280;50159;49.426;11.182;2022-10-16T14:25:32;97939.25;;;41.21
17716;BMP280;50159;49.426;11.182;2022-10-16T14:28:21;97929.19;;;39.88
17716;BMP280;50159;49.426;11.182;2022-10-16T14:30:56;97942.34;;;36.35
17716;BMP280;50159;49.426;11.182;2022-10-16T14:33:33;97922.34;;;34.83
17716;BMP280;50159;49.426;11.182;2022-10-16T14:38:49;97918.34;;;31.84
17716;BMP280;50159;49.426;11.182;2022-10-16T14:41:21;97917.94;;;30.78
17716;BMP280;50159;49.426;11.182;2022-10-16T14:43:56;97904.97;;;29.69
17716;BMP280;50159;49.426;11.182;2022-10-16T14:46:35;97921.06;;;28.71
17716;BMP280;50159;49.426;11.182;2022-10-16T14:51:41;97919.56;;;26.96
17716;BMP280;50159;49.426;11.182;2022-10-16T14:54:09;97923.00;;;26.04
17716;BMP280;50159;49.426;11.182;2022-10-16T14:56:56;97914.81;;;25.29
17716;BMP280;50159;49.426;11.182;2022-10-16T14:59:37;97925.78;;;24.75
17716;BMP280;50159;49.426;11.182;2022-10-16T15:02:32;97917.41;;;24.32
17716;BMP280;50159;49.426;11.182;2022-10-16T15:07:43;97922.34;;;23.75
17716;BMP280;50159;49.426;11.182;2022-10-16T15:10:10;97922.44;;;23.54
17716;BMP280;50159;49.426;11.182;2022-10-16T15:12:37;97921.47;;;23.41
17716;BMP280;50159;49.426;11.182;2022-10-16T15:15:30;97929.69;;;23.25
17716;BMP280;50159;49.426;11.182;2022-10-16T15:17:58;97919.78;;;23.13
17716;BMP280;50159;49.426;11.182;2022-10-16T15:20:31;97929.06;;;23.03
17716;BMP280;50159;49.426;11.182;2022-10-16T15:23:03;97927.69;;;22.86
17716;BMP280;50159;49.426;11.182;2022-10-16T15:28:12;97924.94;;;22.45
17716;BMP280;50159;49.426;11.182;2022-10-16T15:30:39;97930.00;;;22.26
17716;BMP280;50159;49.426;11.182;2022-10-16T15:33:20;97934.41;;;22.05
17716;BMP280;50159;49.426;11.182;2022-10-16T15:35:49;97931.63;;;21.84
17716;BMP280;50159;49.426;11.182;2022-10-16T15:38:19;97937.94;;;21.69
17716;BMP280;50159;49.426;11.182;2022-10-16T15:40:48;97944.84;;;21.56
17716;BMP280;50159;49.426;11.182;2022-10-16T15:43:15;97958.88;;;21.42
17716;BMP280;50159;49.426;11.182;2022-10-16T15:45:43;97959.66;;;21.29
17716;BMP280;50159;49.426;11.182;2022-10-16T15:48:12;97954.28;;;21.14
17716;BMP280;50159;49.426;11.182;2022-10-16T15:50:40;97962.97;;;21.01
17716;BMP280;50159;49.426;11.182;2022-10-16T15:53:13;97958.91;;;20.90
17716;BMP280;50159;49.426;11.182;2022-10-16T15:55:40;97958.00;;;20.84